createdAt,value
2022-10-04T00:00:27.393Z,97646.63
2022-10-04T00:03:07.138Z,97648.94
2022-10-04T00:05:34.387Z,97633.50
2022-10-04T00:08:23.860Z,97641.59
2022-10-04T00:11:16.492Z,97643.91
2022-10-04T00:13:48.882Z,97647.38
2022-10-04T00:16:26.838Z,97650.81
2022-10-04T00:19:39.313Z,97652.38
2022-10-04T00:22:08.346Z,97648.88
2022-10-04T00:24:36.802Z,97644.25
2022-10-04T00:27:24.791Z,97649.28
2022-10-04T00:30:03.435Z,97644.22
2022-10-04T00:32:41.885Z,97639.22
2022-10-04T00:35:28.764Z,97646.59
2022-10-04T00:38:03.950Z,97646.59
2022-10-04T00:40:39.750Z,97636.94
2022-10-04T00:43:12.910Z,97632.69
2022-10-04T00:45:41.985Z,97641.56
2022-10-04T00:48:08.494Z,97640.03
2022-10-04T00:50:41.969Z,97640.81
2022-10-04T00:53:24.999Z,97622.25
2022-10-04T00:56:01.181Z,97636.56
2022-10-04T00:58:38.520Z,97640.44
2022-10-04T01:01:07.548Z,97640.03
2022-10-04T01:03:38.823Z,97640.44
2022-10-04T01:06:11.412Z,97637.72
2022-10-04T01:08:46.394Z,97643.50
2022-10-04T01:11:21.365Z,97646.59
2022-10-04T01:14:00.860Z,97631.13
2022-10-04T01:16:29.916Z,97631.88
2022-10-04T01:19:25.042Z,97632.31
2022-10-04T01:22:36.566Z,97628.81
2022-10-04T01:25:03.956Z,97629.97
2022-10-04T01:27:32.307Z,97628.41
2022-10-04T01:30:05.652Z,97619.16
2022-10-04T01:32:32.335Z,97625.34
2022-10-04T01:34:59.332Z,97621.09
2022-10-04T01:37:26.314Z,97619.56
2022-10-04T01:39:53.095Z,97605.28
2022-10-04T01:42:46.645Z,97622.22
2022-10-04T01:45:27.972Z,97616.44
2022-10-04T01:48:02.263Z,97614.50
2022-10-04T01:50:39.078Z,97617.59
2022-10-04T01:53:17.077Z,97616.81
2022-10-04T01:55:47.784Z,97618.00
2022-10-04T01:58:23.437Z,97610.66
2022-10-04T02:01:18.415Z,97610.66
2022-10-04T02:04:10.079Z,97613.38
2022-10-04T02:06:43.963Z,97608.34
2022-10-04T02:09:17.774Z,97610.69
2022-10-04T02:11:47.265Z,97616.06
2022-10-04T02:14:18.923Z,97614.41
2022-10-04T02:16:47.914Z,97613.69
2022-10-04T02:19:16.280Z,97605.16
2022-10-04T02:21:46.503Z,97587.00
2022-10-04T02:24:14.467Z,97606.38
2022-10-04T02:26:49.888Z,97605.22
2022-10-04T02:29:20.854Z,97606.34
2022-10-04T02:32:10.379Z,97594.44
2022-10-04T02:34:38.441Z,97589.78
2022-10-04T02:37:09.848Z,97596.34
2022-10-04T02:39:50.242Z,97583.97
2022-10-04T02:42:40.311Z,97587.06
2022-10-04T02:45:23.850Z,97579.25
2022-10-04T02:47:57.062Z,97579.63
2022-10-04T02:50:33.812Z,97576.22
2022-10-04T02:53:12.917Z,97581.25
2022-10-04T02:55:43.643Z,97575.47
2022-10-04T02:58:15.431Z,97577.41
2022-10-04T03:00:49.156Z,97580.13
2022-10-04T03:03:17.856Z,97579.38
2022-10-04T03:06:06.469Z,97577.03
2022-10-04T03:08:44.897Z,97572.00
2022-10-04T03:11:14.090Z,97570.84
2022-10-04T03:13:45.097Z,97570.06
2022-10-04T03:16:11.742Z,97566.19
2022-10-04T03:18:39.069Z,97565.41
2022-10-04T03:21:11.867Z,97561.16
2022-10-04T03:23:39.710Z,97558.06
2022-10-04T03:26:26.861Z,97566.91
2022-10-04T03:28:58.460Z,97575.41
2022-10-04T03:31:29.094Z,97573.41
2022-10-04T03:33:58.982Z,97572.25
2022-10-04T03:36:27.338Z,97578.44
2022-10-04T03:38:58.184Z,97580.75
2022-10-04T03:41:27.440Z,97583.09
2022-10-04T03:43:56.105Z,97569.97
2022-10-04T03:46:28.420Z,97574.63
2022-10-04T03:48:58.893Z,97585.09
2022-10-04T03:51:27.502Z,97578.97
2022-10-04T03:53:57.442Z,97591.69
2022-10-04T03:56:32.980Z,97583.94
2022-10-04T03:59:02.488Z,97580.03
2022-10-04T04:01:55.390Z,97587.78
2022-10-04T04:04:31.231Z,97587.75
2022-10-04T04:07:38.298Z,97580.06
2022-10-04T04:10:22.498Z,97587.06
2022-10-04T04:13:03.414Z,97581.31
2022-10-04T04:15:33.896Z,97582.84
2022-10-04T04:18:04.617Z,97580.94
2022-10-04T04:20:40.027Z,97579.41
2022-10-04T04:23:39.436Z,97562.03
2022-10-04T04:26:12.040Z,97576.72
2022-10-04T04:28:55.765Z,97575.16
2022-10-04T04:31:27.393Z,97577.47
2022-10-04T04:34:02.867Z,97577.84
2022-10-04T04:36:41.953Z,97582.09
2022-10-04T04:39:33.176Z,97575.19
2022-10-04T04:42:07.291Z,97575.94
2022-10-04T04:44:34.114Z,97554.31
2022-10-04T04:47:01.135Z,97582.13
2022-10-04T04:49:31.339Z,97589.47
2022-10-04T04:51:58.267Z,97591.38
2022-10-04T04:54:27.408Z,97581.34
2022-10-04T04:56:57.455Z,97587.16
2022-10-04T04:59:27.831Z,97576.34
2022-10-04T05:01:54.553Z,97582.13
2022-10-04T05:04:23.699Z,97577.50
2022-10-04T05:07:07.007Z,97585.59
2022-10-04T05:09:41.371Z,97581.34
2022-10-04T05:12:20.240Z,97579.81
2022-10-04T05:14:53.006Z,97579.78
2022-10-04T05:17:29.888Z,97582.09
2022-10-04T05:19:59.237Z,97583.25
2022-10-04T05:22:30.927Z,97583.63
2022-10-04T05:25:03.027Z,97573.59
2022-10-04T05:27:37.414Z,97582.06
2022-10-04T05:30:09.235Z,97585.19
2022-10-04T05:32:54.002Z,97590.22
2022-10-04T05:35:22.794Z,97586.75
2022-10-04T05:38:19.741Z,97589.09
2022-10-04T05:40:52.468Z,97590.97
2022-10-04T05:43:27.432Z,97589.84
2022-10-04T05:46:12.564Z,97592.56
2022-10-04T05:48:43.239Z,97595.66
2022-10-04T05:51:25.019Z,97592.16
2022-10-04T05:53:52.745Z,97584.44
2022-10-04T05:57:04.051Z,97591.81
2022-10-04T05:59:45.954Z,97591.41
2022-10-04T06:02:39.999Z,97594.50
2022-10-04T06:05:15.210Z,97579.44
2022-10-04T06:07:49.714Z,97598.00
2022-10-04T06:10:34.452Z,97602.22
2022-10-04T06:13:35.522Z,97606.09
2022-10-04T06:16:26.628Z,97608.00
2022-10-04T06:19:10.545Z,97606.47
2022-10-04T06:21:42.569Z,97613.44
2022-10-04T06:24:27.058Z,97604.91
2022-10-04T06:27:20.916Z,97621.50
2022-10-04T06:29:56.551Z,97605.72
2022-10-04T06:32:56.790Z,97618.81
2022-10-04T06:35:48.020Z,97616.91
2022-10-04T06:38:23.638Z,97624.53
2022-10-04T06:41:16.648Z,97621.78
2022-10-04T06:43:46.150Z,97606.28
2022-10-04T06:46:38.000Z,97594.38
2022-10-04T06:49:54.461Z,97603.22
2022-10-04T06:52:29.303Z,97609.72
2022-10-04T06:55:15.244Z,97608.16
2022-10-04T06:58:00.434Z,97601.94
2022-10-04T07:00:37.662Z,97601.19
2022-10-04T07:03:17.071Z,97599.28
2022-10-04T07:05:56.035Z,97606.13
2022-10-04T07:08:39.362Z,97612.59
2022-10-04T07:11:32.795Z,97595.69
2022-10-04T07:14:07.697Z,97605.69
2022-10-04T07:16:46.583Z,97608.31
2022-10-04T07:19:32.556Z,97606.41
2022-10-04T07:22:08.170Z,97612.97
2022-10-04T07:24:55.950Z,97616.91
2022-10-04T07:28:10.390Z,97622.72
2022-10-04T07:30:44.054Z,97621.47
2022-10-04T07:33:18.681Z,97621.44
2022-10-04T07:35:53.754Z,97623.09
2022-10-04T07:38:34.226Z,97600.31
2022-10-04T07:41:19.365Z,97618.72
2022-10-04T07:43:45.830Z,97613.59
2022-10-04T07:46:20.271Z,97627.28
2022-10-04T07:48:49.361Z,97623.56
2022-10-04T07:51:33.160Z,97624.56
2022-10-04T07:54:26.726Z,97633.00
2022-10-04T07:57:02.153Z,97631.03
2022-10-04T07:59:50.103Z,97633.16
2022-10-04T08:02:16.671Z,97634.38
2022-10-04T08:05:11.312Z,97642.19
2022-10-04T08:08:19.555Z,97642.50
2022-10-04T08:11:03.286Z,97647.00
2022-10-04T08:14:02.251Z,97643.81
2022-10-04T08:16:36.649Z,97644.06
2022-10-04T08:19:15.463Z,97640.69
2022-10-04T08:22:00.466Z,97640.81
2022-10-04T08:24:36.752Z,97639.00
2022-10-04T08:27:09.270Z,97643.69
2022-10-04T08:29:50.623Z,97631.00
2022-10-04T08:32:45.164Z,97635.53
2022-10-04T08:35:40.256Z,97631.56
2022-10-04T08:38:15.117Z,97637.06
2022-10-04T08:41:03.949Z,97635.91
2022-10-04T08:44:09.046Z,97635.47
2022-10-04T08:46:53.678Z,97631.34
2022-10-04T08:49:35.381Z,97632.59
2022-10-04T08:52:20.552Z,97635.44
2022-10-04T08:55:21.008Z,97632.81
2022-10-04T08:58:28.004Z,97642.97
2022-10-04T09:01:27.499Z,97641.41
2022-10-04T09:04:18.730Z,97639.06
2022-10-04T09:07:19.237Z,97628.41
2022-10-04T09:10:01.796Z,97634.63
2022-10-04T09:12:47.219Z,97630.44
2022-10-04T09:15:47.292Z,97639.03
2022-10-04T09:18:44.653Z,97636.13
2022-10-04T09:21:21.118Z,97621.47
2022-10-04T09:24:09.454Z,97631.91
2022-10-04T09:26:46.839Z,97639.16
2022-10-04T09:29:35.159Z,97639.47
2022-10-04T09:32:13.937Z,97629.84
2022-10-04T09:35:08.211Z,97620.47
2022-10-04T09:38:00.004Z,97617.53
2022-10-04T09:40:32.161Z,97614.22
2022-10-04T09:43:05.791Z,97615.59
2022-10-04T09:45:37.720Z,97617.88
2022-10-04T09:48:26.258Z,97620.56
2022-10-04T09:51:13.169Z,97614.63
2022-10-04T09:53:55.193Z,97624.34
2022-10-04T09:56:39.944Z,97625.91
2022-10-04T09:59:08.859Z,97635.81
2022-10-04T10:01:59.611Z,97622.38
2022-10-04T10:05:06.309Z,97636.97
2022-10-04T10:07:38.610Z,97633.22
2022-10-04T10:10:45.643Z,97626.00
2022-10-04T10:13:49.283Z,97623.44
2022-10-04T10:16:47.599Z,97619.53
2022-10-04T10:19:28.330Z,97614.75
2022-10-04T10:22:18.256Z,97615.00
2022-10-04T10:25:12.930Z,97617.22
2022-10-04T10:28:01.194Z,97615.81
2022-10-04T10:31:04.087Z,97610.72
2022-10-04T10:33:55.534Z,97620.09
2022-10-04T10:36:28.080Z,97605.00
2022-10-04T10:39:22.541Z,97609.13
2022-10-04T10:41:52.111Z,97607.97
2022-10-04T10:44:46.177Z,97610.22
2022-10-04T10:47:36.623Z,97610.06
2022-10-04T10:50:13.277Z,97610.41
2022-10-04T10:53:14.215Z,97606.97
2022-10-04T10:55:43.582Z,97610.06
2022-10-04T10:58:57.244Z,97610.22
2022-10-04T11:01:56.177Z,97607.19
2022-10-04T11:04:54.325Z,97607.31
2022-10-04T11:07:37.325Z,97598.69
2022-10-04T11:10:26.607Z,97598.00
2022-10-04T11:13:29.984Z,97586.91
2022-10-04T11:16:38.572Z,97592.28
2022-10-04T11:19:47.275Z,97594.56
2022-10-04T11:22:36.025Z,97591.38
2022-10-04T11:25:07.661Z,97595.78
2022-10-04T11:27:57.422Z,97587.25
2022-10-04T11:30:28.354Z,97581.09
2022-10-04T11:33:32.261Z,97579.94
2022-10-04T11:36:08.180Z,97572.84
2022-10-04T11:38:52.713Z,97575.31
2022-10-04T11:41:44.299Z,97579.94
2022-10-04T11:44:49.289Z,97580.31
2022-10-04T11:47:16.054Z,97577.81
2022-10-04T11:49:57.157Z,97571.28
2022-10-04T11:52:39.915Z,97567.16
2022-10-04T11:55:43.065Z,97567.91
2022-10-04T11:58:27.734Z,97568.47
2022-10-04T12:01:09.364Z,97565.53
2022-10-04T12:04:13.704Z,97566.06
2022-10-04T12:07:06.919Z,97559.38
2022-10-04T12:09:46.510Z,97553.28
2022-10-04T12:12:56.496Z,97551.41
2022-10-04T12:15:49.515Z,97546.94
2022-10-04T12:19:02.691Z,97554.59
2022-10-04T12:21:59.422Z,97548.16
2022-10-04T12:25:03.244Z,97546.16
2022-10-04T12:27:52.478Z,97544.28
2022-10-04T12:30:42.101Z,97538.09
2022-10-04T12:33:32.774Z,97532.13
2022-10-04T12:36:12.657Z,97531.03
2022-10-04T12:38:48.115Z,97526.59
2022-10-04T12:41:45.877Z,97527.44
2022-10-04T12:44:24.505Z,97526.50
2022-10-04T12:46:52.957Z,97521.84
2022-10-04T12:49:25.970Z,97526.00
2022-10-04T12:51:57.780Z,97508.78
2022-10-04T12:54:36.781Z,97515.53
2022-10-04T12:57:28.256Z,97503.22
2022-10-04T13:00:18.740Z,97509.41
2022-10-04T13:03:07.797Z,97507.25
2022-10-04T13:05:46.103Z,97521.72
2022-10-04T13:08:27.171Z,97515.97
2022-10-04T13:10:56.455Z,97513.09
2022-10-04T13:13:29.410Z,97513.03
2022-10-04T13:19:09.518Z,97506.09
2022-10-04T13:21:38.604Z,97508.75
2022-10-04T13:24:05.270Z,97503.66
2022-10-04T13:26:39.970Z,97509.13
2022-10-04T13:29:28.669Z,97496.84
2022-10-04T13:32:01.946Z,97495.66
2022-10-04T13:34:40.750Z,97503.34
2022-10-04T13:37:22.384Z,97502.00
2022-10-04T13:40:16.522Z,97496.00
2022-10-04T13:43:01.335Z,97494.38
2022-10-04T13:45:53.122Z,97497.88
2022-10-04T13:48:37.848Z,97499.56
2022-10-04T13:51:31.201Z,97504.47
2022-10-04T13:54:35.427Z,97495.28
2022-10-04T13:57:27.882Z,97497.63
2022-10-04T14:00:01.931Z,97490.91
2022-10-04T14:02:53.489Z,97497.00
2022-10-04T14:06:02.109Z,97498.56
2022-10-04T14:08:54.889Z,97505.06
2022-10-04T14:11:43.950Z,97494.56
2022-10-04T14:14:35.619Z,97503.25
2022-10-04T14:17:23.333Z,97504.50
2022-10-04T14:20:25.282Z,97494.66
2022-10-04T14:23:21.319Z,97487.28
2022-10-04T14:26:14.879Z,97490.47
2022-10-04T14:29:20.912Z,97484.28
2022-10-04T14:32:37.789Z,97493.94
2022-10-04T14:35:13.088Z,97486.63
2022-10-04T14:38:04.450Z,97490.31
2022-10-04T14:41:07.292Z,97495.47
2022-10-04T14:43:58.749Z,97493.47
2022-10-04T14:47:16.464Z,97488.50
2022-10-04T14:50:08.621Z,97489.88
2022-10-04T14:52:52.110Z,97485.75
2022-10-04T14:55:58.495Z,97485.91
2022-10-04T14:59:06.727Z,97488.50
2022-10-04T15:01:36.190Z,97479.47
2022-10-04T15:04:13.027Z,97476.63
2022-10-04T15:06:57.652Z,97485.13
2022-10-04T15:09:42.208Z,97483.31
2022-10-04T15:12:58.623Z,97478.72
2022-10-04T15:15:13.554Z,97477.97
2022-10-04T15:17:52.389Z,97485.28
2022-10-04T15:20:28.989Z,97477.81
2022-10-04T15:23:08.858Z,97478.56
2022-10-04T15:25:57.675Z,97475.47
2022-10-04T15:28:32.968Z,97479.47
2022-10-04T15:31:12.151Z,97479.28
2022-10-04T15:33:53.961Z,97481.38
2022-10-04T15:36:52.821Z,97474.69
2022-10-04T15:39:39.872Z,97469.63
2022-10-04T15:42:09.350Z,97473.56
2022-10-04T15:44:41.852Z,97471.91
2022-10-04T15:47:38.541Z,97470.25
2022-10-04T15:50:21.265Z,97458.16
2022-10-04T15:53:03.723Z,97459.69
2022-10-04T15:55:38.681Z,97461.78
2022-10-04T15:58:09.556Z,97458.72
2022-10-04T16:00:59.978Z,97461.16
2022-10-04T16:04:00.427Z,97458.41
2022-10-04T16:06:49.032Z,97458.03
2022-10-04T16:09:23.697Z,97462.84
2022-10-04T16:12:07.481Z,97465.38
2022-10-04T16:15:14.079Z,97468.53
2022-10-04T16:17:48.600Z,97466.50
2022-10-04T16:20:34.494Z,97470.28
2022-10-04T16:23:35.716Z,97467.41
2022-10-04T16:26:11.161Z,97460.50
2022-10-04T16:28:56.253Z,97459.09
2022-10-04T16:31:40.893Z,97466.28
2022-10-04T16:34:28.615Z,97452.69
2022-10-04T16:37:00.653Z,97465.41
2022-10-04T16:39:56.237Z,97461.94
2022-10-04T16:42:46.031Z,97462.94
2022-10-04T16:45:35.581Z,97469.97
2022-10-04T16:48:24.273Z,97465.78
2022-10-04T16:51:05.692Z,97475.34
2022-10-04T16:53:41.481Z,97474.56
2022-10-04T16:56:18.074Z,97479.38
2022-10-04T16:58:57.138Z,97478.28
2022-10-04T17:01:23.641Z,97485.94
2022-10-04T17:04:07.085Z,97482.00
2022-10-04T17:06:59.940Z,97487.78
2022-10-04T17:09:32.604Z,97493.31
2022-10-04T17:12:11.313Z,97500.31
2022-10-04T17:14:57.002Z,97491.88
2022-10-04T17:17:31.070Z,97501.63
2022-10-04T17:20:19.957Z,97510.44
2022-10-04T17:23:07.035Z,97510.56
2022-10-04T17:25:40.076Z,97517.22
2022-10-04T17:28:30.559Z,97516.19
2022-10-04T17:31:03.124Z,97515.13
2022-10-04T17:33:48.004Z,97513.09
2022-10-04T17:36:20.328Z,97518.56
2022-10-04T17:38:59.063Z,97528.00
2022-10-04T17:41:46.681Z,97523.09
2022-10-04T17:44:28.368Z,97531.78
2022-10-04T17:47:23.592Z,97512.28
2022-10-04T17:50:15.097Z,97526.44
2022-10-04T17:53:08.092Z,97525.84
2022-10-04T17:55:55.175Z,97527.22
2022-10-04T17:58:55.762Z,97538.03
2022-10-04T18:01:53.180Z,97536.94
2022-10-04T18:04:30.667Z,97534.19
2022-10-04T18:07:13.107Z,97540.56
2022-10-04T18:09:39.764Z,97538.44
2022-10-04T18:12:12.270Z,97541.44
2022-10-04T18:14:51.924Z,97535.00
2022-10-04T18:17:42.736Z,97537.38
2022-10-04T18:20:27.680Z,97530.13
2022-10-04T18:23:15.517Z,97525.03
2022-10-04T18:25:42.615Z,97532.03
2022-10-04T18:28:09.797Z,97539.16
2022-10-04T18:30:49.438Z,97537.25
2022-10-04T18:33:26.096Z,97547.69
2022-10-04T18:36:00.351Z,97546.19
2022-10-04T18:38:47.794Z,97546.69
2022-10-04T18:41:46.331Z,97533.97
2022-10-04T18:44:27.529Z,97547.53
2022-10-04T18:46:59.337Z,97549.13
2022-10-04T18:49:34.255Z,97545.38
2022-10-04T18:52:12.360Z,97528.81
2022-10-04T18:55:02.897Z,97549.53
2022-10-04T18:57:56.064Z,97552.34
2022-10-04T19:00:42.582Z,97543.19
2022-10-04T19:03:20.855Z,97560.34
2022-10-04T19:05:56.881Z,97563.44
2022-10-04T19:08:29.564Z,97564.25
2022-10-04T19:11:20.624Z,97561.53
2022-10-04T19:13:59.343Z,97565.44
2022-10-04T19:16:31.312Z,97567.75
2022-10-04T19:19:21.471Z,97565.44
2022-10-04T19:22:00.875Z,97561.31
2022-10-04T19:24:42.505Z,97574.88
2022-10-04T19:27:22.504Z,97563.88
2022-10-04T19:30:06.722Z,97585.75
2022-10-04T19:33:00.861Z,97596.81
2022-10-04T19:35:41.387Z,97595.59
2022-10-04T19:38:26.291Z,97598.34
2022-10-04T19:41:42.111Z,97594.72
2022-10-04T19:44:29.892Z,97603.00
2022-10-04T19:47:19.046Z,97612.28
2022-10-04T19:50:13.580Z,97607.97
2022-10-04T19:52:53.931Z,97603.41
2022-10-04T19:55:43.842Z,97607.72
2022-10-04T19:58:22.796Z,97610.06
2022-10-04T20:00:49.970Z,97602.34
2022-10-04T20:03:16.896Z,97607.94
2022-10-04T20:05:48.719Z,97609.38
2022-10-04T20:09:04.590Z,97616.00
2022-10-04T20:11:40.100Z,97613.25
2022-10-04T20:14:17.026Z,97624.91
2022-10-04T20:16:46.694Z,97610.50
2022-10-04T20:19:31.302Z,97614.81
2022-10-04T20:22:13.188Z,97617.88
2022-10-04T20:24:39.735Z,97617.91
2022-10-04T20:27:30.336Z,97617.53
2022-10-04T20:30:04.361Z,97625.66
2022-10-04T20:32:34.082Z,97619.84
2022-10-04T20:35:01.839Z,97621.41
2022-10-04T20:38:19.890Z,97623.25
2022-10-04T20:40:46.207Z,97626.81
2022-10-04T20:43:15.828Z,97630.31
2022-10-04T20:45:55.188Z,97638.13
2022-10-04T20:48:24.526Z,97645.28
2022-10-04T20:50:52.652Z,97644.56
2022-10-04T20:53:27.294Z,97646.91
2022-10-04T20:56:24.095Z,97647.25
2022-10-04T20:58:56.446Z,97648.88
2022-10-04T21:01:36.461Z,97635.69
2022-10-04T21:04:17.986Z,97652.66
2022-10-04T21:06:55.231Z,97649.16
2022-10-04T21:09:28.617Z,97647.22
2022-10-04T21:11:57.012Z,97658.47
2022-10-04T21:14:31.219Z,97648.78
2022-10-04T21:17:03.351Z,97649.28
2022-10-04T21:19:32.802Z,97661.22
2022-10-04T21:21:59.410Z,97659.28
2022-10-04T21:24:37.937Z,97653.84
2022-10-04T21:27:09.524Z,97652.75
2022-10-04T21:29:36.873Z,97647.72
2022-10-04T21:32:03.948Z,97655.50
2022-10-04T21:37:20.652Z,97660.56
2022-10-04T21:39:47.575Z,97664.53
2022-10-04T21:42:16.779Z,97669.56
2022-10-04T21:44:46.593Z,97664.91
2022-10-04T21:47:13.189Z,97674.63
2022-10-04T21:49:44.783Z,97669.97
2022-10-04T21:52:11.416Z,97672.72
2022-10-04T21:54:37.993Z,97674.28
2022-10-04T21:57:07.422Z,97677.41
2022-10-04T21:59:33.962Z,97667.38
2022-10-04T22:02:07.926Z,97666.16
2022-10-04T22:04:34.654Z,97675.09
2022-10-04T22:07:01.320Z,97672.28
2022-10-04T22:09:28.007Z,97681.97
2022-10-04T22:11:59.367Z,97678.19
2022-10-04T22:14:26.088Z,97677.81
2022-10-04T22:16:52.799Z,97679.06
2022-10-04T22:19:19.896Z,97675.19
2022-10-04T22:21:46.625Z,97690.72
2022-10-04T22:24:21.052Z,97691.53
2022-10-04T22:26:50.662Z,97691.53
2022-10-04T22:29:21.007Z,97684.97
2022-10-04T22:31:51.888Z,97681.53
2022-10-04T22:34:23.200Z,97687.34
2022-10-04T22:36:53.577Z,97674.19
2022-10-04T22:39:24.674Z,97687.34
2022-10-04T22:41:57.732Z,97680.00
2022-10-04T22:44:35.398Z,97687.78
2022-10-04T22:47:04.218Z,97694.75
2022-10-04T22:49:34.147Z,97686.22
2022-10-04T22:52:05.413Z,97683.91
2022-10-04T22:54:34.028Z,97688.94
2022-10-04T22:57:05.239Z,97685.59
2022-10-04T22:59:51.272Z,97700.63
2022-10-04T23:02:26.855Z,97702.97
2022-10-04T23:04:59.202Z,97690.56
2022-10-04T23:07:26.066Z,97688.63
2022-10-04T23:09:57.361Z,97672.38
2022-10-04T23:12:28.791Z,97684.81
2022-10-04T23:14:55.693Z,97679.84
2022-10-04T23:17:29.316Z,97680.56
2022-10-04T23:20:15.770Z,97678.69
2022-10-04T23:22:46.261Z,97682.94
2022-10-04T23:25:29.354Z,97678.69
2022-10-04T23:28:11.609Z,97687.59
2022-10-04T23:30:38.547Z,97679.84
2022-10-04T23:33:19.023Z,97687.19
2022-10-04T23:35:48.261Z,97681.34
2022-10-04T23:38:20.457Z,97674.34
2022-10-04T23:40:49.659Z,97670.03
2022-10-04T23:43:31.750Z,97680.81
2022-10-04T23:45:58.779Z,97674.56
2022-10-04T23:48:29.391Z,97674.94
2022-10-04T23:50:57.895Z,97679.91
2022-10-04T23:53:27.433Z,97676.75
2022-10-04T23:55:55.984Z,97680.97
2022-10-04T23:58:26.112Z,97669.06
